Time;durP1;ratioP1;P1;durP2;ratioP2;P2;SDS_P1;SDS_P2;PMS_P1;PMS_P2;Temp;Humidity;BMP_temperature;BMP_pressure;BME280_temperature;BME280_humidity;BME280_pressure;Samples;Min_cycle;Max_cycle;Signal;HPM_P1;HPM_P2
2023/06/18 00:02:23;;;;;;;11.05;8.50;;;;;;;21.36;100.00;99947.56;5063094;28;20028;-77
2023/06/18 00:04:48;;;;;;;9.80;8.10;;;;;;;21.33;100.00;99946.31;5045858;28;20024;-77
2023/06/18 00:07:14;;;;;;;10.88;8.48;;;;;;;21.34;100.00;99944.28;5064383;28;20476;-77
2023/06/18 00:09:40;;;;;;;9.32;8.32;;;;;;;21.28;100.00;99940.16;5054722;28;20025;-77
2023/06/18 00:12:05;;;;;;;12.07;9.27;;;;;;;21.26;100.00;99939.75;5079254;28;20032;-77
2023/06/18 00:14:31;;;;;;;10.88;8.80;;;;;;;21.26;100.00;99951.03;5074458;28;20032;-77
2023/06/18 00:16:56;;;;;;;11.65;8.85;;;;;;;21.23;100.00;99943.31;5046168;28;20040;-77
2023/06/18 00:19:22;;;;;;;9.77;8.43;;;;;;;21.21;100.00;99935.22;5057501;28;20028;-77
2023/06/18 00:21:47;;;;;;;9.85;8.27;;;;;;;21.15;100.00;99934.75;5062154;28;20479;-77
2023/06/18 00:24:13;;;;;;;10.65;8.57;;;;;;;21.14;100.00;99933.09;5054495;28;20145;-77
2023/06/18 00:26:38;;;;;;;9.38;8.40;;;;;;;21.12;100.00;99935.50;5047417;28;20085;-77
2023/06/18 00:29:04;;;;;;;9.88;8.85;;;;;;;21.11;100.00;99933.84;5076052;28;20036;-77
2023/06/18 00:31:32;;;;;;;9.07;8.18;;;;;;;21.06;100.00;99931.38;5082903;28;20027;-77
2023/06/18 00:34:06;;;;;;;9.38;8.40;;;;;;;21.04;100.00;99928.13;5079304;28;20089;-76
2023/06/18 00:36:33;;;;;;;10.70;8.80;;;;;;;21.03;100.00;99926.47;5064381;28;20028;-77
2023/06/18 00:39:02;;;;;;;9.80;8.80;;;;;;;21.02;100.00;99935.34;5063053;28;20042;-77
2023/06/18 00:41:29;;;;;;;12.15;9.15;;;;;;;21.00;100.00;99930.06;5082372;28;20036;-77
2023/06/18 00:43:57;;;;;;;9.38;8.45;;;;;;;20.96;100.00;99932.03;5078876;28;20465;-77
2023/06/18 00:46:24;;;;;;;8.65;7.63;;;;;;;20.94;100.00;99923.91;5052493;28;20027;-77
2023/06/18 00:48:50;;;;;;;8.50;7.60;;;;;;;20.91;100.00;99929.50;5051672;28;20044;-77
2023/06/18 00:51:16;;;;;;;8.73;7.80;;;;;;;20.87;100.00;99925.84;5080295;28;20092;-77
2023/06/18 00:53:42;;;;;;;9.25;7.93;;;;;;;20.84;100.00;99923.72;5050942;28;20472;-77
2023/06/18 00:56:07;;;;;;;8.70;7.80;;;;;;;20.81;100.00;99925.34;5055483;28;20036;-77
2023/06/18 00:58:33;;;;;;;9.65;7.75;;;;;;;20.74;100.00;99930.84;5080578;28;20020;-77
2023/06/18 01:00:59;;;;;;;10.25;7.28;;;;;;;20.72;100.00;99922.75;5083036;28;20028;-77
2023/06/18 01:03:25;;;;;;;10.75;7.97;;;;;;;20.74;100.00;99913.91;5037490;28;20021;-77
2023/06/18 01:05:53;;;;;;;9.68;7.70;;;;;;;20.72;100.00;99908.63;5065974;28;20039;-77
2023/06/18 01:08:22;;;;;;;10.25;7.60;;;;;;;20.65;100.00;99916.19;5073165;28;20082;-77
2023/06/18 01:10:48;;;;;;;10.88;8.10;;;;;;;20.64;100.00;99909.69;5087109;28;20509;-77
2023/06/18 01:13:14;;;;;;;8.75;7.38;;;;;;;20.57;100.00;99912.41;5067378;28;20036;-77
2023/06/18 01:15:39;;;;;;;9.07;7.57;;;;;;;20.51;100.00;99911.88;5095069;28;20036;-77
2023/06/18 01:18:07;;;;;;;11.68;8.35;;;;;;;20.46;100.00;99912.19;5049780;28;20054;-77
2023/06/18 01:20:40;;;;;;;8.55;7.65;;;;;;;20.44;100.00;99911.75;5084147;28;20036;-77
2023/06/18 01:23:07;;;;;;;8.68;7.40;;;;;;;20.40;100.00;99910.06;5069073;28;20032;-77
2023/06/18 01:25:32;;;;;;;9.75;7.97;;;;;;;20.35;100.00;99910.38;5065846;28;20092;-77
2023/06/18 01:28:00;;;;;;;9.20;8.00;;;;;;;20.34;100.00;99911.53;5069842;28;20470;-77
2023/06/18 01:30:25;;;;;;;10.85;7.57;;;;;;;20.29;100.00;99910.69;5049118;28;20071;-77
2023/06/18 01:32:54;;;;;;;8.85;7.35;;;;;;;20.25;100.00;99907.00;5048649;28;20469;-77
2023/06/18 01:35:21;;;;;;;8.18;7.38;;;;;;;20.20;100.00;99906.50;5049421;28;20122;-77
2023/06/18 01:38:12;;;;;;;8.73;7.57;;;;;;;20.15;100.00;99904.78;5049408;28;20024;-77
2023/06/18 01:40:43;;;;;;;12.07;7.93;;;;;;;20.10;100.00;99899.44;5113862;28;20523;-77
2023/06/18 01:43:23;;;;;;;8.88;7.35;;;;;;;20.11;100.00;99900.25;5082127;28;20024;-77
2023/06/18 01:46:09;;;;;;;8.77;7.15;;;;;;;20.09;100.00;99892.19;5062580;28;20032;-77
2023/06/18 01:48:58;;;;;;;8.35;7.07;;;;;;;20.02;100.00;99894.84;5052849;28;20139;-77
2023/06/18 01:51:24;;;;;;;9.65;7.45;;;;;;;20.01;100.00;99896.06;5045300;28;20047;-77
2023/06/18 01:53:52;;;;;;;8.93;7.70;;;;;;;19.94;100.00;99893.06;5044221;28;20048;-77
2023/06/18 01:56:18;;;;;;;11.05;7.28;;;;;;;19.97;100.00;99895.97;5061771;28;20036;-77
2023/06/18 01:58:43;;;;;;;8.27;7.30;;;;;;;19.97;100.00;99892.31;5031875;28;20054;-77
2023/06/18 02:01:12;;;;;;;8.25;7.43;;;;;;;19.93;100.00;99892.28;5028786;28;20032;-77
2023/06/18 02:03:39;;;;;;;8.20;7.40;;;;;;;19.91;100.00;99889.00;5031587;28;20029;-77
2023/06/18 02:06:04;;;;;;;8.88;7.13;;;;;;;19.88;100.00;99884.13;5045079;28;20124;-77
2023/06/18 02:08:30;;;;;;;8.80;7.60;;;;;;;19.88;100.00;99891.75;5042164;28;20032;-77
2023/06/18 02:10:56;;;;;;;8.35;7.55;;;;;;;19.84;100.00;99884.03;5079343;28;20034;-77
2023/06/18 02:13:21;;;;;;;9.77;7.60;;;;;;;19.83;100.00;99879.59;5046091;28;20024;-77
2023/06/18 02:15:47;;;;;;;8.20;7.32;;;;;;;19.80;100.00;99874.69;5011781;28;20036;-77
2023/06/18 02:18:12;;;;;;;8.18;7.18;;;;;;;19.76;100.00;99879.47;5043180;28;20495;-77
2023/06/18 02:20:41;;;;;;;9.18;7.10;;;;;;;19.75;100.00;99874.19;5030504;28;20554;-77
2023/06/18 02:23:07;;;;;;;10.38;6.78;;;;;;;19.75;100.00;99879.81;5047803;28;20108;-77
2023/06/18 02:25:33;;;;;;;9.82;7.45;;;;;;;19.73;100.00;99871.75;5044725;28;20036;-77
2023/06/18 02:27:59;;;;;;;10.00;6.72;;;;;;;19.70;100.00;99866.88;5048665;28;20024;-77
2023/06/18 02:30:25;;;;;;;7.90;7.07;;;;;;;19.67;100.00;99861.97;5061285;28;20032;-76
2023/06/18 02:32:52;;;;;;;9.48;7.20;;;;;;;19.67;100.00;99849.88;5044794;28;20029;-77
2023/06/18 02:35:18;;;;;;;8.48;6.72;;;;;;;19.69;100.00;99856.75;5034959;28;20040;-77
2023/06/18 02:37:43;;;;;;;8.32;7.10;;;;;;;19.64;100.00;99857.06;5061422;28;20024;-77
2023/06/18 02:40:11;;;;;;;8.88;7.38;;;;;;;19.66;100.00;99856.69;5044657;28;20028;-77
2023/06/18 02:42:37;;;;;;;9.00;7.57;;;;;;;19.63;100.00;99853.41;5048136;28;20111;-77
2023/06/18 02:45:03;;;;;;;9.63;6.80;;;;;;;19.61;100.00;99847.34;5028147;28;20035;-77
2023/06/18 02:47:29;;;;;;;8.10;6.63;;;;;;;19.63;100.00;99850.59;5049820;28;20044;-77
2023/06/18 02:49:55;;;;;;;10.35;6.82;;;;;;;19.60;100.00;99844.88;5047544;28;20028;-77
2023/06/18 02:52:20;;;;;;;8.85;6.82;;;;;;;19.59;100.00;99837.63;5066591;28;20040;-77
2023/06/18 02:54:46;;;;;;;9.38;7.05;;;;;;;19.58;100.00;99835.97;5047503;28;20403;-77
2023/06/18 02:57:11;;;;;;;7.90;6.28;;;;;;;19.55;100.00;99831.91;5054102;28;20027;-77
2023/06/18 02:59:37;;;;;;;10.48;7.28;;;;;;;19.52;100.00;99827.00;5064220;28;20028;-77
2023/06/18 03:02:04;;;;;;;10.05;7.13;;;;;;;19.52;100.00;99823.41;5060808;28;20054;-77
2023/06/18 03:04:30;;;;;;;7.40;6.70;;;;;;;19.52;100.00;99831.84;5064267;28;20380;-77
2023/06/18 03:06:57;;;;;;;8.25;7.15;;;;;;;19.54;100.00;99823.84;5043463;28;20030;-77
2023/06/18 03:09:23;;;;;;;9.38;7.50;;;;;;;19.49;100.00;99824.94;5053610;28;20136;-77
2023/06/18 03:11:48;;;;;;;8.90;7.07;;;;;;;19.51;100.00;99821.78;5079743;28;20023;-77
2023/06/18 03:14:14;;;;;;;7.88;6.78;;;;;;;19.48;100.00;99823.31;5047024;28;20031;-77
2023/06/18 03:16:39;;;;;;;8.00;7.20;;;;;;;19.49;100.00;99826.94;5033449;28;20020;-77
2023/06/18 03:19:05;;;;;;;7.65;6.55;;;;;;;19.49;100.00;99832.59;5050557;28;20015;-77
2023/06/18 03:21:30;;;;;;;10.45;7.15;;;;;;;19.47;100.00;99823.69;5066096;28;20039;-77
2023/06/18 03:23:56;;;;;;;8.95;7.03;;;;;;;19.47;100.00;99815.25;5080299;28;20024;-77
2023/06/18 03:26:21;;;;;;;8.55;7.43;;;;;;;19.51;100.00;99818.97;5066715;28;20105;-77
2023/06/18 03:28:47;;;;;;;8.82;7.05;;;;;;;19.48;100.00;99820.50;5056937;28;20031;-77
2023/06/18 03:31:13;;;;;;;9.85;7.07;;;;;;;19.50;100.00;99822.94;5063751;28;20064;-77
2023/06/18 03:33:38;;;;;;;8.95;7.28;;;;;;;19.49;100.00;99815.69;5030427;28;20021;-77
2023/06/18 03:36:05;;;;;;;10.00;7.03;;;;;;;19.49;100.00;99812.88;5063219;28;20039;-77
2023/06/18 03:38:31;;;;;;;8.45;7.05;;;;;;;19.48;100.00;99803.63;5063786;28;20111;-77
2023/06/18 03:40:56;;;;;;;7.93;6.70;;;;;;;19.47;100.00;99812.41;5044018;28;20049;-77
2023/06/18 03:43:22;;;;;;;7.18;6.38;;;;;;;19.46;100.00;99811.63;5063425;28;20027;-77
2023/06/18 03:45:47;;;;;;;7.80;7.00;;;;;;;19.51;100.00;99802.06;5059806;28;20434;-77
2023/06/18 03:48:13;;;;;;;7.07;6.38;;;;;;;19.48;100.00;99809.25;5063133;28;20044;-77
2023/06/18 03:50:38;;;;;;;8.73;6.95;;;;;;;19.48;100.00;99809.25;5046080;28;20032;-77
2023/06/18 03:53:04;;;;;;;7.30;6.38;;;;;;;19.45;100.00;99797.91;5079651;28;20149;-77
2023/06/18 03:55:29;;;;;;;8.32;6.75;;;;;;;19.45;100.00;99804.38;5062157;28;20027;-77
2023/06/18 03:57:55;;;;;;;10.52;7.10;;;;;;;19.43;100.00;99804.72;5063003;28;20032;-77
2023/06/18 04:00:21;;;;;;;7.70;6.90;;;;;;;19.44;100.00;99799.91;5045701;28;20027;-77
2023/06/18 04:02:46;;;;;;;8.35;6.97;;;;;;;19.42;100.00;99803.09;5064557;28;20083;-77
2023/06/18 04:05:12;;;;;;;8.05;7.25;;;;;;;19.40;100.00;99807.47;5045724;28;20476;-77
2023/06/18 04:07:38;;;;;;;9.27;6.68;;;;;;;19.42;100.00;99811.53;5063039;28;20042;-77
2023/06/18 04:10:03;;;;;;;9.55;7.78;;;;;;;19.42;100.00;99814.38;5059078;28;20081;-77
2023/06/18 04:12:29;;;;;;;7.97;7.05;;;;;;;19.41;100.00;99809.91;5079316;28;20062;-77
2023/06/18 04:14:54;;;;;;;9.73;7.20;;;;;;;19.35;100.00;99797.31;5058332;28;20400;-77
2023/06/18 04:17:20;;;;;;;8.45;7.38;;;;;;;19.34;100.00;99795.69;5046027;28;20027;-77
2023/06/18 04:19:45;;;;;;;9.20;6.88;;;;;;;19.30;100.00;99791.97;5077483;28;20035;-77
2023/06/18 04:22:11;;;;;;;8.25;7.00;;;;;;;19.28;100.00;99788.72;5054844;28;20024;-77
2023/06/18 04:24:36;;;;;;;8.95;7.00;;;;;;;19.27;100.00;99792.72;5042701;28;20024;-77
2023/06/18 04:27:02;;;;;;;9.95;6.78;;;;;;;19.26;100.00;99804.38;5046085;28;20031;-77
2023/06/18 04:29:27;;;;;;;8.48;6.72;;;;;;;19.22;100.00;99803.47;5063725;28;20081;-77
2023/06/18 04:31:52;;;;;;;8.73;6.90;;;;;;;19.21;100.00;99802.66;5079359;28;20032;-77
2023/06/18 04:34:18;;;;;;;10.13;6.88;;;;;;;19.21;100.00;99808.28;5081685;28;20031;-77
2023/06/18 04:36:44;;;;;;;8.35;6.53;;;;;;;19.18;100.00;99812.63;5070615;28;20434;-77
2023/06/18 04:39:10;;;;;;;8.63;7.30;;;;;;;19.19;100.00;99816.25;5080591;28;20032;-77
2023/06/18 04:41:35;;;;;;;9.13;7.22;;;;;;;19.21;100.00;99805.47;5046179;28;20028;-77
2023/06/18 04:44:01;;;;;;;8.10;7.30;;;;;;;19.18;100.00;99809.81;5069311;28;20031;-77
2023/06/18 04:46:26;;;;;;;7.82;6.88;;;;;;;19.21;100.00;99808.28;5045773;28;20024;-77
2023/06/18 04:48:52;;;;;;;10.20;7.07;;;;;;;19.20;100.00;99806.66;5063797;28;20051;-77
2023/06/18 04:51:18;;;;;;;8.40;7.05;;;;;;;19.20;100.00;99809.47;5082130;28;20039;-77
2023/06/18 04:53:44;;;;;;;10.63;6.80;;;;;;;19.21;100.00;99805.47;5047187;28;20066;-76
2023/06/18 04:56:10;;;;;;;7.53;6.75;;;;;;;19.22;100.00;99809.91;5079267;28;20028;-77
2023/06/18 04:58:39;;;;;;;11.30;7.45;;;;;;;19.22;100.00;99812.72;5052547;28;20073;-77
2023/06/18 05:01:04;;;;;;;8.55;6.60;;;;;;;19.23;100.00;99820.00;5045728;28;20040;-77
2023/06/18 05:03:30;;;;;;;7.43;6.72;;;;;;;19.28;100.00;99821.69;5067393;28;20028;-77
2023/06/18 05:05:55;;;;;;;9.75;6.65;;;;;;;19.26;100.00;99810.81;5090834;28;20081;-77
2023/06/18 05:08:21;;;;;;;8.93;6.78;;;;;;;19.27;100.00;99815.25;5056657;28;20024;-77
2023/06/18 05:10:46;;;;;;;8.65;6.85;;;;;;;19.29;100.00;99812.06;5082232;28;20032;-77
2023/06/18 05:13:12;;;;;;;11.65;7.00;;;;;;;19.32;100.00;99811.31;5063146;28;20035;-77
2023/06/18 05:15:37;;;;;;;7.50;6.45;;;;;;;19.32;100.00;99817.75;5079066;28;20024;-77
2023/06/18 05:18:03;;;;;;;9.10;6.90;;;;;;;19.35;100.00;99817.03;5074326;28;20024;-77
2023/06/18 05:20:29;;;;;;;7.97;6.57;;;;;;;19.39;100.00;99820.75;5063048;28;20078;-77
2023/06/18 05:22:54;;;;;;;7.75;6.53;;;;;;;19.41;100.00;99821.16;5080153;28;20028;-77
2023/06/18 05:25:19;;;;;;;8.55;6.50;;;;;;;19.42;100.00;99822.81;5045677;28;20035;-77
2023/06/18 05:27:45;;;;;;;7.35;6.00;;;;;;;19.48;100.00;99812.06;5065360;28;20031;-77
2023/06/18 05:30:11;;;;;;;6.32;5.72;;;;;;;19.46;100.00;99808.78;5065775;28;20027;-77
2023/06/18 05:32:36;;;;;;;6.13;5.43;;;;;;;19.51;100.00;99810.50;5067081;28;20050;-77
2023/06/18 05:35:02;;;;;;;7.65;5.70;;;;;;;19.56;100.00;99811.03;5082682;28;20028;-77
2023/06/18 05:37:27;;;;;;;8.35;6.05;;;;;;;19.59;100.00;99812.28;5067115;28;20106;-77
2023/06/18 05:39:53;;;;;;;6.38;5.72;;;;;;;19.61;100.00;99804.25;5048757;28;20020;-77
2023/06/18 05:42:18;;;;;;;6.78;5.63;;;;;;;19.63;100.00;99810.34;5050254;28;20035;-77
2023/06/18 05:44:44;;;;;;;6.30;5.70;;;;;;;19.66;100.00;99803.19;5053865;28;20032;-77
2023/06/18 05:47:10;;;;;;;7.97;5.55;;;;;;;19.71;100.00;99800.88;5075277;28;20075;-77
2023/06/18 05:49:35;;;;;;;6.00;5.30;;;;;;;19.75;100.00;99798.97;5057016;28;20021;-77
2023/06/18 05:52:01;;;;;;;6.20;5.60;;;;;;;19.75;100.00;99798.97;5040440;28;20028;-77
2023/06/18 05:54:26;;;;;;;6.95;5.75;;;;;;;19.77;100.00;99804.19;5048692;28;20384;-78
2023/06/18 05:56:52;;;;;;;5.97;5.30;;;;;;;19.82;100.00;99801.88;5097051;28;20495;-78
2023/06/18 05:59:17;;;;;;;6.18;5.45;;;;;;;19.88;100.00;99804.41;5045162;28;20078;-77
2023/06/18 06:01:43;;;;;;;7.47;5.43;;;;;;;19.91;100.00;99803.66;5079689;28;20032;-77
2023/06/18 06:04:08;;;;;;;6.38;5.70;;;;;;;19.94;100.00;99802.91;5070039;28;20024;-77
2023/06/18 06:06:34;;;;;;;6.30;5.50;;;;;;;19.96;100.00;99812.63;5078167;28;20028;-77
2023/06/18 06:09:00;;;;;;;8.43;6.05;;;;;;;19.99;100.00;99800.59;5042857;28;20036;-77
2023/06/18 06:11:26;;;;;;;6.28;5.68;;;;;;;20.02;100.00;99797.00;5073698;28;20032;-77
2023/06/18 06:13:52;;;;;;;6.40;5.70;;;;;;;20.05;100.00;99801.09;5093625;28;20548;-77
2023/06/18 06:16:17;;;;;;;7.00;5.55;;;;;;;20.07;100.00;99795.91;5079393;28;20051;-77
2023/06/18 06:18:42;;;;;;;6.97;5.43;;;;;;;20.11;100.00;99796.75;5084973;28;20032;-77
2023/06/18 06:21:08;;;;;;;6.82;5.63;;;;;;;20.14;100.00;99804.47;5081023;28;20085;-77
2023/06/18 06:23:34;;;;;;;6.90;6.07;;;;;;;20.18;100.00;99799.72;5061791;28;20029;-76
2023/06/18 06:26:00;;;;;;;6.78;6.13;;;;;;;20.23;100.00;99788.13;5061434;28;20064;-77
2023/06/18 06:28:25;;;;;;;8.98;6.38;;;;;;;20.29;100.00;99797.09;5077156;28;20040;-78
2023/06/18 06:30:51;;;;;;;8.23;6.68;;;;;;;20.34;100.00;99804.41;5070717;28;20050;-78
2023/06/18 06:33:16;;;;;;;7.80;6.22;;;;;;;20.40;100.00;99795.25;5061029;28;20036;-78
2023/06/18 06:35:42;;;;;;;9.48;7.88;;;;;;;20.47;100.00;99795.34;5060926;28;20079;-78
2023/06/18 06:38:07;;;;;;;7.90;6.80;;;;;;;20.54;100.00;99803.16;5084754;28;20024;-78
2023/06/18 06:40:33;;;;;;;8.35;7.30;;;;;;;20.61;100.00;99800.44;5061079;28;20043;-78
2023/06/18 06:42:58;;;;;;;8.27;7.10;;;;;;;20.67;100.00;99796.13;5076792;28;20025;-78
2023/06/18 06:45:24;;;;;;;8.18;6.57;;;;;;;20.73;100.00;99805.88;5064567;28;20035;-78
2023/06/18 06:47:50;;;;;;;7.85;7.05;;;;;;;20.80;100.00;99804.34;5034229;28;20488;-78
2023/06/18 06:50:15;;;;;;;8.77;7.03;;;;;;;20.86;100.00;99800.81;5079567;28;20031;-78
2023/06/18 06:52:41;;;;;;;8.25;7.15;;;;;;;20.91;100.00;99810.97;5047284;28;20123;-78
2023/06/18 06:55:07;;;;;;;7.70;7.00;;;;;;;20.96;100.00;99807.81;5051291;28;20032;-78
2023/06/18 06:57:32;;;;;;;10.35;7.10;;;;;;;21.00;100.00;99808.69;5031328;28;20024;-78
2023/06/18 06:59:59;;;;;;;8.45;7.10;;;;;;;21.04;100.00;99815.19;5112299;28;20080;-78
2023/06/18 07:02:24;;;;;;;13.15;6.97;;;;;;;21.07;100.00;99822.91;5077634;28;20040;-78
2023/06/18 07:04:50;;;;;;;7.30;6.60;;;;;;;21.10;100.00;99836.25;5096294;28;20090;-78
2023/06/18 07:07:15;;;;;;;8.13;7.22;;;;;;;21.13;100.00;99834.69;5081829;28;20085;-78
2023/06/18 07:09:41;;;;;;;9.02;7.93;;;;;;;21.16;100.00;99831.09;5047159;28;20024;-78
2023/06/18 07:12:07;;;;;;;9.55;7.45;;;;;;;21.20;100.00;99824.31;5078588;28;20336;-78
2023/06/18 07:14:32;;;;;;;7.85;7.10;;;;;;;21.22;100.00;99831.56;5100951;28;20031;-78
2023/06/18 07:16:58;;;;;;;9.60;7.20;;;;;;;21.22;100.00;99838.03;5078552;28;20028;-78
2023/06/18 07:19:23;;;;;;;9.43;7.60;;;;;;;21.25;100.00;99836.44;5058833;28;20114;-78
2023/06/18 07:21:50;;;;;;;8.48;7.53;;;;;;;21.26;100.00;99843.75;5087631;28;20519;-78
2023/06/18 07:24:16;;;;;;;8.25;7.45;;;;;;;21.25;100.00;99837.25;5071955;28;20445;-78
2023/06/18 07:26:41;;;;;;;8.73;7.82;;;;;;;21.26;100.00;99846.56;5078759;28;20114;-78
2023/06/18 07:29:07;;;;;;;9.10;8.20;;;;;;;21.25;100.00;99837.25;5077148;28;20061;-78
2023/06/18 07:31:32;;;;;;;9.38;8.18;;;;;;;21.26;100.00;99853.03;5078274;28;20044;-78
2023/06/18 07:33:58;;;;;;;8.48;7.57;;;;;;;21.25;100.00;99845.72;5058273;28;20032;-78
2023/06/18 07:36:23;;;;;;;9.77;8.20;;;;;;;21.25;100.00;99861.84;5078127;28;20028;-78
2023/06/18 07:38:49;;;;;;;9.73;8.35;;;;;;;21.25;100.00;99867.50;5049459;28;20032;-78
2023/06/18 07:41:14;;;;;;;9.50;8.48;;;;;;;21.23;100.00;99873.56;5072267;28;20023;-78
2023/06/18 07:43:40;;;;;;;13.43;8.80;;;;;;;21.22;100.00;99877.56;5079539;28;20102;-78
2023/06/18 07:46:06;;;;;;;12.35;7.90;;;;;;;21.18;100.00;99880.34;5093592;28;20032;-78
2023/06/18 07:48:32;;;;;;;11.68;8.98;;;;;;;21.15;100.00;99883.91;5098002;28;20062;-78
2023/06/18 07:50:57;;;;;;;13.07;8.88;;;;;;;21.15;100.00;99878.28;5065698;28;20034;-78
2023/06/18 07:53:23;;;;;;;10.23;8.82;;;;;;;21.09;100.00;99874.16;5066464;28;20031;-78
2023/06/18 07:55:48;;;;;;;11.15;8.85;;;;;;;21.08;100.00;99874.53;5077840;28;20412;-78
2023/06/18 07:58:14;;;;;;;10.95;9.05;;;;;;;21.06;100.00;99859.97;5074848;28;20057;-78
2023/06/18 08:00:39;;;;;;;13.90;8.98;;;;;;;21.05;100.00;99855.53;5077770;28;20437;-78
2023/06/18 08:03:05;;;;;;;11.70;9.07;;;;;;;21.04;100.00;99851.91;5083749;28;20413;-77
2023/06/18 08:05:30;;;;;;;10.93;9.30;;;;;;;21.02;100.00;99839.34;5092664;28;20036;-78
2023/06/18 08:07:56;;;;;;;13.63;8.80;;;;;;;20.99;100.00;99832.47;5044121;28;20397;-78
2023/06/18 08:10:22;;;;;;;9.65;8.65;;;;;;;20.98;100.00;99834.47;5078082;28;20028;-78
2023/06/18 08:12:48;;;;;;;11.02;9.38;;;;;;;20.99;100.00;99829.63;5086528;28;20042;-78
2023/06/18 08:15:13;;;;;;;13.70;8.35;;;;;;;20.97;100.00;99815.91;5075991;28;20024;-78
2023/06/18 08:17:39;;;;;;;11.15;8.52;;;;;;;20.98;100.00;99817.53;5053507;28;20028;-78
2023/06/18 08:20:05;;;;;;;9.70;8.68;;;;;;;20.96;100.00;99817.09;5059199;28;20040;-78
2023/06/18 08:22:31;;;;;;;11.13;9.23;;;;;;;20.96;100.00;99808.63;5079641;28;20543;-78
2023/06/18 08:24:56;;;;;;;9.85;8.43;;;;;;;20.97;100.00;99815.91;5076478;28;20031;-78
2023/06/18 08:27:22;;;;;;;9.30;8.20;;;;;;;20.98;100.00;99822.38;5055945;28;20046;-78
2023/06/18 08:29:47;;;;;;;11.52;8.13;;;;;;;21.00;100.00;99825.59;5044586;28;20028;-78
2023/06/18 08:32:13;;;;;;;9.27;7.90;;;;;;;21.00;100.00;99831.25;5073731;28;20031;-78
2023/06/18 08:34:42;;;;;;;8.98;8.07;;;;;;;21.01;100.00;99834.91;5062385;28;20036;-78
2023/06/18 08:37:09;;;;;;;8.88;7.20;;;;;;;21.01;100.00;99852.66;5090591;28;20031;-78
2023/06/18 08:39:34;;;;;;;9.40;7.95;;;;;;;21.01;100.00;99878.06;5082767;28;20699;-78
2023/06/18 08:42:00;;;;;;;12.43;8.65;;;;;;;21.00;100.00;99876.41;5087957;28;20086;-77
2023/06/18 08:44:29;;;;;;;12.75;10.23;;;;;;;20.89;100.00;99825.44;5079205;28;20024;-77
2023/06/18 08:47:00;;;;;;;13.07;8.82;;;;;;;20.87;100.00;99866.56;5078988;28;20028;-77
2023/06/18 08:49:29;;;;;;;10.82;8.73;;;;;;;20.81;100.00;99856.78;5079838;28;20028;-77
2023/06/18 08:51:57;;;;;;;11.77;8.75;;;;;;;20.75;100.00;99831.72;5089717;28;20059;-77
2023/06/18 08:54:23;;;;;;;12.90;8.60;;;;;;;20.72;100.00;99834.47;5045014;28;20104;-76
2023/06/18 08:56:55;;;;;;;11.75;8.18;;;;;;;20.64;100.00;99810.97;5055415;28;20030;-77
2023/06/18 08:59:20;;;;;;;10.82;7.53;;;;;;;20.60;100.00;99786.72;5079119;28;20032;-76
2023/06/18 09:01:46;;;;;;;10.88;7.65;;;;;;;20.57;100.00;99762.91;5059599;28;20502;-77
2023/06/18 09:04:12;;;;;;;13.43;8.40;;;;;;;20.41;100.00;99743.28;5047973;28;20023;-76
2023/06/18 09:06:38;;;;;;;14.55;9.60;;;;;;;20.27;100.00;99752.34;5075670;28;20032;-76
2023/06/18 09:09:04;;;;;;;12.82;8.00;;;;;;;20.25;100.00;99759.53;5063192;28;20044;-76
2023/06/18 09:11:31;;;;;;;10.73;7.15;;;;;;;20.23;100.00;99756.31;5086347;28;20038;-76
2023/06/18 09:13:57;;;;;;;11.85;8.60;;;;;;;20.23;100.00;99750.69;5063162;28;20035;-76
2023/06/18 09:16:22;;;;;;;12.23;8.73;;;;;;;20.18;100.00;99748.16;5082685;28;20476;-76
2023/06/18 09:18:48;;;;;;;9.43;7.72;;;;;;;20.18;100.00;99757.44;5085917;28;20076;-76
2023/06/18 09:21:33;;;;;;;9.52;7.25;;;;;;;20.17;100.00;99750.19;5069172;28;20028;-76
2023/06/18 09:23:59;;;;;;;13.57;10.65;;;;;;;20.18;100.00;99748.97;5082329;28;20055;-76
2023/06/18 09:26:25;;;;;;;16.40;14.65;;;;;;;20.19;100.00;99753.41;5068321;28;20341;-76
2023/06/18 09:28:51;;;;;;;15.13;11.10;;;;;;;20.24;100.00;99743.84;5049060;28;20047;-76
2023/06/18 09:31:23;;;;;;;11.93;10.52;;;;;;;20.31;100.00;99747.59;5064797;28;20032;-77
2023/06/18 09:33:49;;;;;;;11.25;9.55;;;;;;;20.38;100.00;99757.34;5066401;28;20028;-77
2023/06/18 09:36:14;;;;;;;14.05;9.60;;;;;;;20.43;100.00;99768.31;5077382;28;20101;-77
2023/06/18 09:38:41;;;;;;;10.77;8.05;;;;;;;20.53;100.00;99784.59;5049415;28;20078;-77
2023/06/18 09:41:14;;;;;;;9.70;7.95;;;;;;;20.63;100.00;99794.44;5068224;28;20073;-77
2023/06/18 09:43:43;;;;;;;10.05;7.60;;;;;;;20.72;100.00;99803.44;5049315;28;20024;-77
2023/06/18 09:46:08;;;;;;;10.60;8.10;;;;;;;20.80;100.00;99804.34;5049092;28;20051;-77
2023/06/18 09:48:39;;;;;;;12.02;7.00;;;;;;;20.86;100.00;99802.84;5068860;28;20373;-76
2023/06/18 09:51:05;;;;;;;10.15;7.82;;;;;;;20.92;100.00;99798.47;5085345;28;20590;-76
2023/06/18 09:53:31;;;;;;;7.22;6.50;;;;;;;20.96;100.00;99799.34;5102291;28;20032;-73
2023/06/18 09:56:10;;;;;;;8.98;6.55;;;;;;;21.02;100.00;99799.84;5085736;28;20080;-72
2023/06/18 09:58:40;;;;;;;8.70;6.38;;;;;;;21.05;100.00;99813.19;5083044;28;20036;-75
2023/06/18 10:01:06;;;;;;;8.65;6.93;;;;;;;21.08;100.00;99804.75;5060169;28;20028;-75
2023/06/18 10:03:31;;;;;;;7.93;6.50;;;;;;;21.10;100.00;99790.28;5061015;28;20499;-75
2023/06/18 10:06:00;;;;;;;7.18;6.30;;;;;;;21.13;100.00;99787.50;5083967;28;20019;-75
2023/06/18 10:08:25;;;;;;;7.50;6.00;;;;;;;21.14;100.00;99796.78;5082659;28;20081;-75
2023/06/18 10:10:50;;;;;;;11.02;6.75;;;;;;;21.15;100.00;99798.41;5064802;28;20024;-76
2023/06/18 10:13:16;;;;;;;9.00;6.30;;;;;;;21.15;100.00;99816.16;5078305;28;20035;-76
2023/06/18 10:15:41;;;;;;;9.77;6.85;;;;;;;21.15;100.00;99823.81;5064902;28;20031;-75
2023/06/18 10:18:07;;;;;;;7.65;5.88;;;;;;;21.15;100.00;99849.22;5043251;28;20496;-75
2023/06/18 10:20:32;;;;;;;9.45;6.43;;;;;;;21.12;100.00;99833.88;5070620;28;20039;-75
2023/06/18 10:23:00;;;;;;;8.68;6.93;;;;;;;21.10;100.00;99843.91;5082708;28;20034;-75
2023/06/18 10:25:25;;;;;;;7.47;6.43;;;;;;;21.07;100.00;99848.31;5059894;28;20403;-66
2023/06/18 10:27:51;;;;;;;8.68;6.18;;;;;;;21.03;100.00;99861.53;5062208;28;20032;-75
2023/06/18 10:30:17;;;;;;;8.13;6.70;;;;;;;21.00;100.00;99865.13;5048040;28;20366;-75
2023/06/18 10:32:43;;;;;;;9.23;6.05;;;;;;;20.97;100.00;99874.34;5054361;28;20122;-75
2023/06/18 10:35:09;;;;;;;10.02;6.35;;;;;;;20.92;100.00;99880.31;5080880;28;20035;-74
2023/06/18 10:37:35;;;;;;;6.20;5.60;;;;;;;20.87;100.00;99869.38;5064502;28;20032;-75
2023/06/18 10:40:03;;;;;;;13.57;5.72;;;;;;;20.81;100.00;99853.94;5066410;28;20039;-75
2023/06/18 10:42:30;;;;;;;7.07;5.72;;;;;;;20.75;100.00;99851.47;5049622;28;20020;-75
2023/06/18 10:45:08;;;;;;;5.93;5.35;;;;;;;20.70;100.00;99863.06;5092615;28;20050;-75
2023/06/18 10:47:34;;;;;;;7.20;5.40;;;;;;;20.65;100.00;99869.03;5065362;28;20051;-75
2023/06/18 10:50:00;;;;;;;7.32;5.45;;;;;;;20.57;100.00;99870.09;5047578;28;20020;-75
2023/06/18 10:52:25;;;;;;;7.22;5.60;;;;;;;20.53;100.00;99872.03;5114647;28;20035;-75
2023/06/18 10:54:53;;;;;;;6.93;5.53;;;;;;;20.50;100.00;99867.97;5081054;28;20121;-66
2023/06/18 10:57:19;;;;;;;6.97;4.95;;;;;;;20.42;100.00;99854.09;5085470;28;20042;-67
2023/06/18 10:59:46;;;;;;;6.15;5.28;;;;;;;20.41;100.00;99836.34;5064203;28;20031;-67
2023/06/18 11:02:12;;;;;;;8.80;6.00;;;;;;;20.40;100.00;99811.38;5064013;28;20439;-68
2023/06/18 11:04:37;;;;;;;7.32;6.07;;;;;;;20.38;100.00;99799.66;5075384;28;20032;-68
2023/06/18 11:07:14;;;;;;;7.40;5.30;;;;;;;20.38;100.00;99797.63;5097214;28;20024;-75
2023/06/18 11:09:59;;;;;;;11.15;5.57;;;;;;;20.38;100.00;99779.91;5072055;28;20081;-75
2023/06/18 11:12:25;;;;;;;6.40;5.07;;;;;;;20.36;100.00;99771.00;5099454;28;20515;-76
2023/06/18 11:15:20;;;;;;;7.68;5.20;;;;;;;20.36;100.00;99782.28;5081507;28;20039;-76
2023/06/18 11:17:49;;;;;;;6.10;4.78;;;;;;;20.35;100.00;99780.66;5107077;28;20056;-75
2023/06/18 11:20:16;;;;;;;5.80;4.55;;;;;;;20.36;100.00;99797.19;5116740;28;20035;-76